Honey Grove, Texas
Current Conditions -  °F | °C
As of 2:15 PM on Thursday 30 Oct 2014 (Local Time) from KPRX Reporting Station
Clear Clear  
Wind Chill: 73°   Ceiling: Unl
Heat Index: 73°   Visibility: 10mi
Dew Point: 41°   Wind: 9mph
Humidity: 31%   Direction: 230°SW
Pressure: 30.1"   Gusts: NA
Location:  33.58°N, 95.91°W
Report Text: KPRX 301915Z 23008KT 10SM CLR 23/05 A3010 RMK AO1
Loading
Personal Weather Stations






























Interactive Weather Map
Tropical Storm Tracking
New forecast layout! Learn more

10-Day Weather Forecast

Advertisements
Track Severe Weather on mobile